LIPO METAR and TAF | Updated Today

LIPO METAR

Brescia Airport

Observation time: 6 min. ago

LIPO 061920Z AUTO 07008KT 9999 FEW066/// 03/M02 Q1033

Need help? Read our tutorial on how to read METARs or read the parsed version below.

Brescia Airport (LIPO) METAR

  • Weather conditions on Mon, 06 Feb 2023 19:20:00 +0000 (6 min. ago):
  • Present conditions: Dry
  • Clouds: A few at 2012 meters
  • Visibility: Greater than 10 km
  • Wind: 70 degrees at 8 knots
  • Temperature: 3 celsius
  • Dew point: -2 celsius
  • Pressure: 1033 millibars
  • Remarks: None


Useful to know...

LIPO TAF

Brescia Airport

TAF LIPO 061700Z 0618/0718 07010KT 9999 BKN040 BECMG 0710/0712 26006KT
Observation time: 2:26 hr. ago
Need help? Read our tutorial on how to read TAFs or read the parsed version below.

Parsed version of TAF for Brescia Airport (LIPO)

  • From 06 February at 18:00 UTC, to day 07 of the month at 18:00 UTC
  • Clouds: Broken sky at 1219 meters
  • Visibility: Greater than 10 km
  • Wind: 70 degrees at 10
  • Expected to arise soon, from 07 February at 10:00 UTC, to day 07 of the month at 12:00 UTC
  • Wind: 260 degrees at 6